Latest Coastal Weather Observations for Roebourne Airport

IDW60701

Issued at 11:01 pm WST Friday 6 May 2016 (issued every 10 minutes, with the page automatically refreshed every 10 minutes)

About coastal observations | Map of coastal stations | Coastal observations for WA | Marine services | Other Formats
Station Details ID: 004090 Name: ROEBOURNE AERO Lat: -20.76 Lon: 117.16 Height: 10.7 m
Data from the previous 72 hours. | See also: Recent months at Roebourne Airport
Date/Time
WST
Temp

°C
Wind Pressure Rain
since 9am
mm
Weather Cloud Vis
km
Sea
Height
m
Swell
Dir
 
Speed
knots
Gust
knots
hPa Trend Height
m
Period
s
Dir
06/11:00pm 22.9 CALM 0 0 1008.6 - 4.4 - - - - - - -
06/10:30pm 23.0 CALM 0 0 1008.6 - 4.4 - - - - - - -
06/10:00pm 23.1 CALM 0 0 1008.7 - 4.4 - - - - - - -
06/09:30pm 23.0 CALM 0 0 1008.7 - 4.4 - - - - - - -
06/09:00pm 23.1 CALM 0 0 1008.4 - 4.4 - - - - - - -
06/08:30pm 23.1 CALM 0 0 1008.2 - 4.4 - - - - - - -
06/08:00pm 23.1 CALM 0 0 1007.9 - 4.4 - - - - - - -
06/07:30pm 23.3 CALM 0 0 1007.6 - 4.4 - - - - - - -
06/07:00pm 23.5 CALM 0 0 1007.5 - 4.4 - - - - - - -
06/06:30pm 23.6 CALM 0 0 1007.2 - 4.4 - - - - - - -
06/06:00pm 23.6 CALM 0 3 1007.2 - 4.4 - - - - - - -
06/05:30pm 23.5 SW 5 5 1007.3 - 4.4 - - - - - - -
06/05:00pm 23.7 WSW 5 8 1007.3 - 4.4 - - - - - - -
06/04:30pm 23.5 W 1 5 1007.1 - 4.4 - - - - - - -
06/04:00pm 23.3 CALM 0 0 1007.3 - 4.4 - - - - - - -
06/03:30pm 23.1 CALM 0 0 1007.4 - 4.4 - - - - - - -
06/03:00pm 22.9 W 5 6 1007.8 - 4.4 - - - - - - -
06/02:30pm 22.7 NE 5 6 1007.9 - 4.4 - - - - - - -
06/02:00pm 22.8 NNE 6 7 1008.2 - 4.4 - - - - - - -
06/01:30pm 22.6 E 1 4 1008.8 - 4.4 - - - - - - -
06/01:00pm 22.6 S 4 6 1009.2 - 3.4 - - - - - - -
06/12:30pm 22.4 S 5 8 1009.7 - 2.6 - - - - - - -
06/12:00pm 22.6 SE 5 7 1010.3 - 1.8 Recent precip. - - - - - -
06/11:30am 22.6 SSE 8 9 1010.6 - 1.4 - - - - - - -
06/11:00am 23.2 SSE 11 14 1010.9 - 0.0 - - - - - - -
06/10:30am 24.6 SSE 10 13 1011.2 - 0.0 - - - - - - -
06/10:00am 25.1 S 10 13 1011.3 - 0.0 - - - - - - -
06/09:30am 25.0 S 7 10 1011.4 - 0.0 - - - - - - -
06/09:00am 24.6 S 8 11 1011.3 - 0.0 - - - - - - -
06/08:30am 24.3 SSW 12 16 1011.0 - 0.0 - - - - - - -
06/08:00am 24.3 SSW 12 17 1010.5 - 0.0 - - - - - - -
06/07:30am 23.9 SSW 10 13 1010.1 - 0.0 - - - - - - -
06/07:00am 23.7 SW 10 13 1009.8 - 0.0 - - - - - - -
06/06:30am 24.2 SW 11 17 1009.4 - 0.0 - - - - - - -
06/06:00am 25.1 SW 6 11 1008.8 - 0.0 - - - - - - -
06/05:30am 25.1 SW 6 7 1008.5 - 0.0 - - - - - - -
06/05:00am 25.5 SW 7 9 1008.8 - 0.0 - - - - - - -
06/04:30am 25.7 SW 8 10 1009.0 - 0.0 - - - - - - -
06/04:00am 25.8 SW 6 8 1009.2 - 0.0 - - - - - - -
06/03:30am 25.8 SW 5 6 1009.2 - 0.0 - - - - - - -
06/03:00am 26.0 SW 5 6 1009.4 - 0.0 - - - - - - -
06/02:30am 26.1 SW 7 9 1009.7 - 0.0 - - - - - - -
06/02:00am 25.9 WSW 3 4 1010.0 - 0.0 - - - - - - -
06/01:30am 25.8 SSW 4 5 1010.2 - 0.0 - - - - - - -
06/01:00am 26.0 SSW 5 6 1010.0 - 0.0 - - - - - - -
06/12:30am 26.2 SSW 6 8 1010.2 - 0.0 - - - - - - -
06/12:00am 26.9 W 7 9 1010.4 - 0.0 - - - - - - -
 
Date/Time
WST
Temp

°C
Wind Pressure Rain
since 9am
mm
Weather Cloud Vis
km
Sea
Height
m
Swell
Dir
 
Speed
knots
Gust
knots
hPa Trend Height
m
Period
s
Dir
05/11:30pm 27.0 W 6 8 1010.6 - 0.0 - - - - - - -
05/11:00pm 26.8 WNW 6 8 1010.7 - 0.0 - - - - - - -
05/10:30pm 26.9 WNW 6 7 1010.9 - 0.0 - - - - - - -
05/10:00pm 27.4 WNW 7 8 1011.2 - 0.0 - - - - - - -
05/09:30pm 27.5 WNW 5 7 1011.1 - 0.0 - - - - - - -
05/09:00pm 27.7 WNW 5 6 1010.9 - 0.0 - - - - - - -
05/08:30pm 27.8 SW 5 9 1010.3 - 0.0 - - - - - - -
05/08:00pm 28.0 W 9 13 1010.4 - 0.0 - - - - - - -
05/07:30pm 28.0 WSW 8 11 1010.0 - 0.0 - - - - - - -
05/07:00pm 28.2 WSW 7 10 1009.8 - 0.0 - - - - - - -
05/06:30pm 28.3 W 9 11 1009.9 - 0.0 - - - - - - -
05/06:00pm 28.5 WNW 9 11 1010.0 - 0.0 - - - - - - -
05/05:30pm 28.9 WNW 11 13 1009.8 - 0.0 - - - - - - -
05/05:00pm 29.2 W 10 12 1009.4 - 0.0 - - - - - - -
05/04:30pm 29.7 W 10 12 1009.4 - 0.0 - - - - - - -
05/04:00pm 30.1 WNW 11 13 1009.8 - 0.0 - - - - - - -
05/03:30pm 30.2 W 9 11 1009.7 - 0.0 - - - - - - -
05/03:00pm 30.2 W 9 11 1009.6 - 0.0 - - - - - - -
05/02:30pm 30.1 WNW 11 13 1009.4 - 0.0 - - - - - - -
05/02:00pm 30.9 WNW 10 15 1009.1 - 0.0 - - - - - - -
05/01:30pm 31.4 WSW 7 11 1009.3 - 0.0 - - - - - - -
05/01:00pm 30.9 WSW 7 10 1009.8 - 0.0 - - - - - - -
05/12:30pm 31.1 W 8 11 1010.3 - 0.0 - - - - - - -
05/12:00pm 31.2 WSW 8 14 1010.8 - 0.0 - - - - - - -
05/11:30am 30.7 WSW 7 12 1011.1 - 0.0 - - - - - - -
05/11:00am 30.3 WSW 9 12 1011.7 - 0.0 - - - - - - -
05/10:30am 29.8 WSW 7 10 1011.8 - 0.0 - - - - - - -
05/10:00am 29.4 SW 7 9 1011.9 - 0.0 - - - - - - -
05/09:30am 28.7 SW 9 11 1012.0 - 0.0 - - - - - - -
05/09:00am 28.5 SW 10 13 1011.6 - 0.0 - - - - - - -
05/08:30am 28.2 WSW 11 14 1011.8 - 0.0 - - - - - - -
05/08:00am 27.7 WSW 11 14 1011.7 - 0.0 - - - - - - -
05/07:30am 27.2 WSW 9 13 1011.2 - 0.0 - - - - - - -
05/07:00am 26.8 W 8 11 1011.0 - 0.0 - - - - - - -
05/06:30am 26.6 WSW 8 11 1010.5 - 0.0 - - - - - - -
05/06:00am 26.1 WSW 5 6 1010.3 - 0.0 - - - - - - -
05/05:30am 26.2 WNW 6 7 1010.4 - 0.0 - - - - - - -
05/05:00am 26.5 WNW 4 5 1009.9 - 0.0 - - - - - - -
05/04:30am 26.6 SW 5 6 1009.5 - 0.0 - - - - - - -
05/04:00am 26.8 WNW 6 7 1010.0 - 0.0 - - - - - - -
05/03:30am 27.0 W 7 9 1010.3 - 0.0 - - - - - - -
05/03:00am 27.1 WSW 8 9 1010.1 - 0.0 - - - - - - -
05/02:30am 27.2 W 7 9 1010.3 - 0.0 - - - - - - -
05/02:00am 27.3 W 7 11 1010.7 - 0.0 - - - - - - -
05/01:30am 27.4 W 7 10 1010.5 - 0.0 - - - - - - -
05/01:00am 27.4 W 7 10 1010.4 - 0.0 - - - - - - -
05/12:30am 27.3 NW 5 7 1010.8 - 0.0 - - - - - - -
05/12:00am 27.5 WNW 6 7 1011.1 - 0.0 - - - - - - -
 
Date/Time
WST
Temp

°C
Wind Pressure Rain
since 9am
mm
Weather Cloud Vis
km
Sea
Height
m
Swell
Dir
 
Speed
knots
Gust
knots
hPa Trend Height
m
Period
s
Dir
04/11:30pm 27.5 WNW 7 9 1011.3 - 0.0 - - - - - - -
04/11:00pm 28.0 WNW 7 9 1011.3 - 0.0 - - - - - - -
04/10:30pm 28.1 WNW 5 6 1011.3 - 0.0 - - - - - - -
04/10:00pm 28.4 W 7 9 1011.7 - 0.0 - - - - - - -
04/09:30pm 28.5 W 10 13 1011.9 - 0.0 - - - - - - -
04/09:00pm 28.6 W 9 12 1011.7 - 0.0 - - - - - - -
04/08:30pm 28.9 W 10 14 1011.6 - 0.0 - - - - - - -
04/08:00pm 29.0 W 9 13 1011.1 - 0.0 - - - - - - -
04/07:30pm 29.1 W 11 14 1011.1 - 0.0 - - - - - - -
04/07:00pm 29.4 WNW 11 14 1010.7 - 0.0 - - - - - - -
04/06:30pm 29.7 WNW 12 15 1010.1 - 0.0 - - - - - - -
04/06:00pm 30.5 WNW 11 14 1009.7 - 0.0 - - - - - - -
04/05:30pm 31.1 WNW 12 15 1009.4 - 0.0 - - - - - - -
04/05:00pm 31.9 NW 12 15 1009.1 - 0.0 - - - - - - -
04/04:30pm 32.1 NW 12 15 1008.9 - 0.0 - - - - - - -
04/04:00pm 32.6 NW 12 15 1008.8 - 0.0 - - - - - - -
04/03:30pm 34.0 NNW 12 15 1008.6 - 0.0 - - - - - - -
04/03:00pm 34.9 WNW 8 13 1008.6 - 0.0 - - - - - - -
04/02:30pm 35.3 NNW 8 13 1008.7 - 0.0 - - - - - - -
04/02:00pm 34.6 NW 8 13 1008.9 - 0.0 - - - - - - -
04/01:30pm 34.5 NNW 7 11 1009.2 - 0.0 - - - - - - -
04/01:00pm 33.5 NNE 7 11 1009.6 - 0.0 - - - - - - -
04/12:30pm 33.1 NNE 7 11 1009.9 - 0.0 - - - - - - -
04/12:00pm 33.4 N 6 9 1010.5 - 0.0 - - - - - - -
04/11:30am 33.8 NNW 3 5 1010.9 - 0.0 - - - - - - -
04/11:00am 32.8 NE 3 5 1011.7 - 0.0 - - - - - - -
04/10:30am 31.8 CALM 0 2 1012.1 - 0.0 - - - - - - -
04/10:00am 31.3 NE 2 4 1012.4 - 0.0 - - - - - - -
04/09:30am 29.9 CALM 0 3 1012.5 - 0.0 - - - - - - -
04/09:00am 29.0 SW 4 5 1012.5 - 0.0 - - - - - - -
04/08:30am 27.6 SW 4 5 1012.3 - 0.0 - - - - - - -
04/08:00am 25.8 CALM 0 0 1012.1 - 0.0 - - - - - - -
04/07:30am 25.3 W 2 4 1011.8 - 0.0 - - - - - - -
04/07:00am 23.8 WNW 4 5 1011.6 - 0.0 - - - - - - -
04/06:30am 22.7 WNW 3 4 1011.3 - 0.0 - - - - - - -
04/06:00am 22.0 CALM 0 0 1011.2 - 0.0 - - - - - - -
04/05:30am 22.3 CALM 0 2 1011.0 - 0.0 - - - - - - -
04/05:00am 22.7 SW 4 5 1010.9 - 0.0 - - - - - - -
04/04:30am 23.8 SW 6 6 1011.1 - 0.0 - - - - - - -
04/04:00am 24.3 SSW 6 7 1011.1 - 0.0 - - - - - - -
04/03:30am 25.0 SW 6 7 1011.2 - 0.0 - - - - - - -
04/03:00am 25.0 WSW 6 7 1011.2 - 0.0 - - - - - - -
04/02:30am 25.3 WSW 7 8 1011.3 - 0.0 - - - - - - -
04/02:00am 25.4 SW 7 8 1011.4 - 0.0 - - - - - - -
04/01:30am 25.3 SW 6 9 1011.6 - 0.0 - - - - - - -
04/01:00am 25.8 SW 8 10 1011.5 - 0.0 - - - - - - -
04/12:30am 26.3 WSW 8 10 1011.6 - 0.0 - - - - - - -
04/12:00am 26.4 WSW 8 9 1011.6 - 0.0 - - - - - - -
 
Date/Time
WST
Temp

°C
Wind Pressure Rain
since 9am
mm
Weather Cloud Vis
km
Sea
Height
m
Swell
Dir
 
Speed
knots
Gust
knots
hPa Trend Height
m
Period
s
Dir
03/11:30pm 25.6 W 5 6 1011.6 - 0.0 - - - - - - -

Other Formats:

Comma delimited format used in spreadsheet applications
http://www.bom.gov.au/fwo/IDW60701/IDW60701.94308.axf

JavaScript Object Notation format (JSON) in row-major order
http://www.bom.gov.au/fwo/IDW60701/IDW60701.94308.json